createdAt,value
2023-05-09T00:01:29.954Z,91.49
2023-05-09T00:03:56.429Z,91.43
2023-05-09T00:06:23.251Z,91.59
2023-05-09T00:08:49.685Z,91.61
2023-05-09T00:11:16.083Z,91.24
2023-05-09T00:13:44.072Z,91.01
2023-05-09T00:16:10.837Z,91.07
2023-05-09T00:18:38.073Z,91.33
2023-05-09T00:21:04.588Z,91.45
2023-05-09T00:23:31.068Z,91.40
2023-05-09T00:25:58.176Z,91.17
2023-05-09T00:28:24.598Z,91.33
2023-05-09T00:30:51.035Z,91.45
2023-05-09T00:33:17.492Z,91.62
2023-05-09T00:35:43.877Z,91.56
2023-05-09T00:38:10.431Z,91.59
2023-05-09T00:40:39.626Z,91.63
2023-05-09T00:43:06.091Z,91.69
2023-05-09T00:45:32.619Z,91.69
2023-05-09T00:47:59.209Z,91.48
2023-05-09T00:50:25.670Z,91.57
2023-05-09T00:52:52.207Z,91.86
2023-05-09T00:55:19.538Z,91.53
2023-05-09T00:57:46.142Z,91.75
2023-05-09T01:00:13.567Z,91.99
2023-05-09T01:02:53.984Z,92.03
2023-05-09T01:05:22.754Z,92.17
2023-05-09T01:08:13.137Z,91.90
2023-05-09T01:10:55.992Z,92.50
2023-05-09T01:13:34.236Z,92.54
2023-05-09T01:16:06.129Z,92.62
2023-05-09T01:18:54.303Z,92.46
2023-05-09T01:21:27.952Z,92.89
2023-05-09T01:24:24.833Z,92.83
2023-05-09T01:27:28.597Z,93.09
2023-05-09T01:30:03.026Z,93.40
2023-05-09T01:32:31.974Z,93.83
2023-05-09T01:35:01.405Z,93.59
2023-05-09T01:37:31.663Z,93.58
2023-05-09T01:40:06.760Z,93.83
2023-05-09T01:43:04.078Z,94.03
2023-05-09T01:45:32.680Z,94.15
2023-05-09T01:48:00.093Z,94.21
2023-05-09T01:50:29.356Z,94.17
2023-05-09T01:52:58.544Z,94.15
2023-05-09T01:55:28.349Z,94.15
2023-05-09T01:57:56.567Z,94.22
2023-05-09T02:00:24.115Z,94.30
2023-05-09T02:02:51.964Z,94.00
2023-05-09T02:05:18.818Z,94.18
2023-05-09T02:07:47.394Z,93.99
2023-05-09T02:10:15.822Z,93.90
2023-05-09T02:12:42.313Z,94.05
2023-05-09T02:15:09.596Z,94.34
2023-05-09T02:17:36.094Z,94.27
2023-05-09T02:20:02.544Z,94.61
2023-05-09T02:22:28.956Z,94.76
2023-05-09T02:24:59.020Z,94.81
2023-05-09T02:27:27.043Z,94.81
2023-05-09T02:29:57.561Z,95.00
2023-05-09T02:32:34.115Z,94.79
2023-05-09T02:35:02.898Z,94.90
2023-05-09T02:37:29.828Z,95.08
2023-05-09T02:39:56.674Z,95.50
2023-05-09T02:42:30.187Z,95.69
2023-05-09T02:44:56.623Z,96.02
2023-05-09T02:47:23.198Z,96.07
2023-05-09T02:49:49.690Z,95.98
2023-05-09T02:52:16.197Z,95.89
2023-05-09T02:54:42.630Z,95.85
2023-05-09T02:57:09.035Z,96.03
2023-05-09T02:59:40.973Z,95.72
2023-05-09T03:02:07.430Z,95.70
2023-05-09T03:04:34.080Z,95.86
2023-05-09T03:07:00.512Z,96.09
2023-05-09T03:09:26.970Z,95.93
2023-05-09T03:11:56.299Z,96.06
2023-05-09T03:14:23.053Z,96.33
2023-05-09T03:16:50.990Z,96.00
2023-05-09T03:19:17.477Z,96.11
2023-05-09T03:21:44.003Z,96.26
2023-05-09T03:24:10.411Z,96.36
2023-05-09T03:26:41.588Z,96.22
2023-05-09T03:29:07.990Z,96.16
2023-05-09T03:31:34.717Z,96.23
2023-05-09T03:34:01.135Z,96.54
2023-05-09T03:36:27.550Z,96.55
2023-05-09T03:38:54.125Z,96.70
2023-05-09T03:41:20.792Z,96.99
2023-05-09T03:43:50.275Z,97.03
2023-05-09T03:46:16.814Z,97.05
2023-05-09T03:48:43.322Z,97.10
2023-05-09T03:51:12.581Z,97.13
2023-05-09T03:53:38.959Z,97.09
2023-05-09T03:56:06.527Z,97.26
2023-05-09T03:58:32.933Z,97.42
2023-05-09T04:00:59.391Z,97.15
2023-05-09T04:03:26.963Z,97.63
2023-05-09T04:05:55.604Z,97.45
2023-05-09T04:08:22.126Z,97.53
2023-05-09T04:10:50.210Z,97.84
2023-05-09T04:13:16.908Z,97.54
2023-05-09T04:15:43.495Z,97.51
2023-05-09T04:18:09.901Z,97.61
2023-05-09T04:20:36.471Z,97.70
2023-05-09T04:23:03.080Z,97.72
2023-05-09T04:25:31.059Z,97.78
2023-05-09T04:27:57.744Z,98.03
2023-05-09T04:30:27.350Z,97.75
2023-05-09T04:32:55.369Z,97.92
2023-05-09T04:35:22.667Z,97.81
2023-05-09T04:37:49.511Z,97.85
2023-05-09T04:40:16.004Z,97.76
2023-05-09T04:42:42.439Z,97.73
2023-05-09T04:45:11.586Z,97.84
2023-05-09T04:47:38.564Z,98.17
2023-05-09T04:50:06.724Z,98.29
2023-05-09T04:52:33.243Z,98.18
2023-05-09T04:54:59.621Z,98.54
2023-05-09T04:57:26.106Z,98.31
2023-05-09T04:59:53.020Z,98.67
2023-05-09T05:02:21.175Z,98.39
2023-05-09T05:04:47.794Z,98.63
2023-05-09T05:07:17.251Z,98.38
2023-05-09T05:09:44.089Z,98.51
2023-05-09T05:12:10.594Z,98.40
2023-05-09T05:14:37.046Z,98.56
2023-05-09T05:17:05.874Z,98.59
2023-05-09T05:19:32.268Z,98.46
2023-05-09T05:21:58.820Z,98.52
2023-05-09T05:24:25.312Z,98.96
2023-05-09T05:26:51.997Z,98.82
2023-05-09T05:29:18.526Z,98.88
2023-05-09T05:31:45.141Z,98.67
2023-05-09T05:34:11.729Z,98.58
2023-05-09T05:36:38.107Z,98.55
2023-05-09T05:39:04.604Z,98.47
2023-05-09T05:41:31.490Z,98.09
2023-05-09T05:43:58.072Z,98.26
2023-05-09T05:46:24.694Z,98.22
2023-05-09T05:48:51.225Z,97.86
2023-05-09T05:51:17.672Z,97.88
2023-05-09T05:53:44.248Z,97.80
2023-05-09T05:56:10.687Z,97.70
2023-05-09T05:58:37.193Z,97.51
2023-05-09T06:01:03.891Z,97.42
2023-05-09T06:03:30.850Z,97.55
2023-05-09T06:05:57.657Z,97.28
2023-05-09T06:08:24.069Z,97.08
2023-05-09T06:10:50.534Z,97.24
2023-05-09T06:13:17.117Z,97.21
2023-05-09T06:15:43.874Z,97.17
2023-05-09T06:18:10.597Z,97.34
2023-05-09T06:20:37.162Z,97.22
2023-05-09T06:23:03.570Z,97.34
2023-05-09T06:25:30.963Z,97.19
2023-05-09T06:27:57.687Z,97.59
2023-05-09T06:30:26.670Z,97.61
2023-05-09T06:32:54.449Z,97.70
2023-05-09T06:35:21.384Z,97.51
2023-05-09T06:37:48.858Z,97.57
2023-05-09T06:40:16.258Z,97.70
2023-05-09T06:42:42.738Z,97.80
2023-05-09T06:45:09.598Z,97.86
2023-05-09T06:47:36.017Z,97.65
2023-05-09T06:50:02.512Z,97.88
2023-05-09T06:52:28.936Z,98.28
2023-05-09T06:54:55.438Z,98.45
2023-05-09T06:57:24.781Z,98.39
2023-05-09T06:59:51.284Z,98.70
2023-05-09T07:02:20.696Z,98.77
2023-05-09T07:04:47.240Z,98.97
2023-05-09T07:07:13.983Z,98.81
2023-05-09T07:09:40.360Z,98.86
2023-05-09T07:12:06.979Z,99.07
2023-05-09T07:14:33.405Z,99.78
2023-05-09T07:17:13.833Z,99.53
2023-05-09T07:19:46.291Z,99.93
2023-05-09T07:22:13.512Z,100.00
2023-05-09T07:24:40.050Z,100.00
2023-05-09T07:27:06.450Z,100.00
2023-05-09T07:29:32.831Z,100.00
2023-05-09T07:31:59.302Z,100.00
2023-05-09T07:34:26.589Z,100.00
2023-05-09T07:36:54.424Z,100.00
2023-05-09T07:39:20.867Z,100.00
2023-05-09T07:41:48.732Z,100.00
2023-05-09T07:44:15.852Z,100.00
2023-05-09T07:46:42.722Z,100.00
2023-05-09T07:49:09.319Z,100.00
2023-05-09T07:51:35.907Z,100.00
2023-05-09T07:54:04.749Z,100.00
2023-05-09T07:56:31.244Z,100.00
2023-05-09T07:58:57.714Z,100.00
2023-05-09T08:01:24.286Z,100.00
2023-05-09T08:03:51.169Z,100.00
2023-05-09T08:06:17.765Z,100.00
2023-05-09T08:08:44.294Z,100.00
2023-05-09T08:11:10.875Z,100.00
2023-05-09T08:13:37.491Z,100.00
2023-05-09T08:16:04.236Z,100.00
2023-05-09T08:18:31.068Z,100.00
2023-05-09T08:20:59.509Z,100.00
2023-05-09T08:23:26.508Z,100.00
2023-05-09T08:25:54.470Z,100.00
2023-05-09T08:28:24.036Z,100.00
2023-05-09T08:30:53.615Z,100.00
2023-05-09T08:33:20.217Z,100.00
2023-05-09T08:35:53.551Z,100.00
2023-05-09T08:38:24.204Z,100.00
2023-05-09T08:40:50.691Z,100.00
2023-05-09T08:43:21.993Z,100.00
2023-05-09T08:45:58.022Z,100.00
2023-05-09T08:48:27.823Z,100.00
2023-05-09T08:50:56.111Z,100.00
2023-05-09T08:53:23.724Z,100.00
2023-05-09T08:55:50.882Z,100.00
2023-05-09T08:58:19.776Z,100.00
2023-05-09T09:00:47.075Z,100.00
2023-05-09T09:03:13.889Z,100.00
2023-05-09T09:05:42.790Z,100.00
2023-05-09T09:08:10.877Z,100.00
2023-05-09T09:10:41.895Z,100.00
2023-05-09T09:13:10.488Z,100.00
2023-05-09T09:15:38.527Z,100.00
2023-05-09T09:18:09.041Z,100.00
2023-05-09T09:20:40.356Z,100.00
2023-05-09T09:23:10.554Z,100.00
2023-05-09T09:25:37.396Z,100.00
2023-05-09T09:28:04.998Z,100.00
2023-05-09T09:30:31.610Z,100.00
2023-05-09T09:33:00.831Z,100.00
2023-05-09T09:35:27.446Z,100.00
2023-05-09T09:38:00.643Z,100.00
2023-05-09T09:40:27.071Z,100.00
2023-05-09T09:42:56.319Z,100.00
2023-05-09T09:45:22.837Z,100.00
2023-05-09T09:47:50.267Z,100.00
2023-05-09T09:50:23.154Z,100.00
2023-05-09T09:52:55.714Z,100.00
2023-05-09T09:55:24.382Z,100.00
2023-05-09T09:57:51.559Z,100.00
2023-05-09T10:00:28.475Z,100.00
2023-05-09T10:02:59.424Z,100.00
2023-05-09T10:05:34.359Z,100.00
2023-05-09T10:08:03.796Z,100.00
2023-05-09T10:10:33.236Z,100.00
2023-05-09T10:13:07.629Z,100.00
2023-05-09T10:15:49.522Z,100.00
2023-05-09T10:18:24.898Z,100.00
2023-05-09T10:21:00.848Z,100.00
2023-05-09T10:23:30.958Z,100.00
2023-05-09T10:26:18.757Z,100.00
2023-05-09T10:28:49.297Z,100.00
2023-05-09T10:31:22.387Z,100.00
2023-05-09T10:33:50.367Z,100.00
2023-05-09T10:36:21.301Z,100.00
2023-05-09T10:38:49.295Z,100.00
2023-05-09T10:41:21.901Z,100.00
2023-05-09T10:43:48.831Z,100.00
2023-05-09T10:46:18.055Z,100.00
2023-05-09T10:48:46.566Z,100.00
2023-05-09T10:51:13.602Z,100.00
2023-05-09T10:53:48.807Z,100.00
2023-05-09T10:56:26.900Z,100.00
2023-05-09T10:58:54.663Z,100.00
2023-05-09T11:01:37.009Z,100.00
2023-05-09T11:04:16.382Z,100.00
2023-05-09T11:06:43.770Z,100.00
2023-05-09T11:09:27.554Z,100.00
2023-05-09T11:12:14.321Z,100.00
2023-05-09T11:14:48.978Z,100.00
2023-05-09T11:17:22.540Z,100.00
2023-05-09T11:19:51.676Z,100.00
2023-05-09T11:22:37.563Z,100.00
2023-05-09T11:25:17.487Z,100.00
2023-05-09T11:27:46.166Z,100.00
2023-05-09T11:30:14.999Z,100.00
2023-05-09T11:32:52.333Z,100.00
2023-05-09T11:35:21.047Z,100.00
2023-05-09T11:37:52.997Z,100.00
2023-05-09T11:40:24.693Z,100.00
2023-05-09T11:42:56.244Z,100.00
2023-05-09T11:45:26.741Z,100.00
2023-05-09T11:47:53.956Z,100.00
2023-05-09T11:50:21.652Z,100.00
2023-05-09T11:52:49.159Z,100.00
2023-05-09T11:55:22.998Z,100.00
2023-05-09T11:57:52.521Z,100.00
2023-05-09T12:00:26.267Z,100.00
2023-05-09T12:02:53.544Z,100.00
2023-05-09T12:05:22.065Z,100.00
2023-05-09T12:07:49.057Z,100.00
2023-05-09T12:10:19.267Z,100.00
2023-05-09T12:12:48.496Z,100.00
2023-05-09T12:15:15.902Z,100.00
2023-05-09T12:17:43.707Z,100.00
2023-05-09T12:20:11.002Z,100.00
2023-05-09T12:22:37.698Z,100.00
2023-05-09T12:25:09.569Z,100.00
2023-05-09T12:27:37.022Z,100.00
2023-05-09T12:30:08.860Z,100.00
2023-05-09T12:32:36.734Z,100.00
2023-05-09T12:35:03.650Z,100.00
2023-05-09T12:37:32.637Z,100.00
2023-05-09T12:40:13.198Z,100.00
2023-05-09T12:42:43.035Z,100.00
2023-05-09T12:45:10.386Z,100.00
2023-05-09T12:47:38.939Z,100.00
2023-05-09T12:50:07.409Z,100.00
2023-05-09T12:52:36.744Z,100.00
2023-05-09T12:55:11.362Z,100.00
2023-05-09T12:57:39.507Z,100.00
2023-05-09T13:00:07.955Z,100.00
2023-05-09T13:02:40.014Z,100.00
2023-05-09T13:05:11.013Z,100.00
2023-05-09T13:07:40.434Z,100.00
2023-05-09T13:10:28.486Z,100.00
2023-05-09T13:12:55.213Z,100.00
2023-05-09T13:15:23.423Z,100.00
2023-05-09T13:17:53.266Z,100.00
2023-05-09T13:20:19.876Z,100.00
2023-05-09T13:22:47.344Z,100.00
2023-05-09T13:25:14.328Z,100.00
2023-05-09T13:27:40.911Z,100.00
2023-05-09T13:30:08.521Z,100.00
2023-05-09T13:32:36.460Z,100.00
2023-05-09T13:35:06.751Z,100.00
2023-05-09T13:37:34.193Z,100.00
2023-05-09T13:40:04.201Z,100.00
2023-05-09T13:42:31.161Z,100.00
2023-05-09T13:45:00.761Z,100.00
2023-05-09T13:47:27.303Z,100.00
2023-05-09T13:49:54.002Z,100.00
2023-05-09T13:52:20.500Z,100.00
2023-05-09T13:54:47.152Z,100.00
2023-05-09T13:57:13.514Z,100.00
2023-05-09T13:59:43.163Z,100.00
2023-05-09T14:02:11.008Z,100.00
2023-05-09T14:04:37.565Z,100.00
2023-05-09T14:07:04.841Z,100.00
2023-05-09T14:09:31.339Z,100.00
2023-05-09T14:11:57.842Z,100.00
2023-05-09T14:14:25.472Z,100.00
2023-05-09T14:16:52.068Z,100.00
2023-05-09T14:19:18.708Z,100.00
2023-05-09T14:21:48.981Z,100.00
2023-05-09T14:24:18.905Z,100.00
2023-05-09T14:26:45.407Z,100.00
2023-05-09T14:29:12.180Z,100.00
2023-05-09T14:31:38.756Z,100.00
2023-05-09T14:34:06.207Z,100.00
2023-05-09T14:36:33.237Z,100.00
2023-05-09T14:38:59.682Z,100.00
2023-05-09T14:41:26.758Z,100.00
2023-05-09T14:43:53.401Z,100.00
2023-05-09T14:46:19.969Z,100.00
2023-05-09T14:48:46.473Z,100.00
2023-05-09T14:51:13.043Z,100.00
2023-05-09T14:53:42.187Z,100.00
2023-05-09T14:56:12.281Z,100.00
2023-05-09T14:58:38.912Z,100.00
2023-05-09T15:01:05.508Z,100.00
2023-05-09T15:03:32.113Z,100.00
2023-05-09T15:05:59.170Z,100.00
2023-05-09T15:08:26.002Z,100.00
2023-05-09T15:10:52.789Z,100.00
2023-05-09T15:13:19.522Z,100.00
2023-05-09T15:15:46.062Z,100.00
2023-05-09T15:18:16.622Z,100.00
2023-05-09T15:20:43.347Z,100.00
2023-05-09T15:23:10.803Z,100.00
2023-05-09T15:25:37.353Z,100.00
2023-05-09T15:28:03.930Z,100.00
2023-05-09T15:30:30.601Z,100.00
2023-05-09T15:32:57.475Z,100.00
2023-05-09T15:35:24.044Z,100.00
2023-05-09T15:37:50.537Z,100.00
2023-05-09T15:40:22.123Z,100.00
2023-05-09T15:42:52.728Z,100.00
2023-05-09T15:45:19.327Z,100.00
2023-05-09T15:47:45.961Z,100.00
2023-05-09T15:50:12.941Z,100.00
2023-05-09T15:52:39.551Z,100.00
2023-05-09T15:55:06.983Z,100.00
2023-05-09T15:57:33.589Z,100.00
2023-05-09T16:00:00.039Z,100.00
2023-05-09T16:02:30.414Z,100.00
2023-05-09T16:04:56.991Z,100.00
2023-05-09T16:07:23.524Z,100.00
2023-05-09T16:09:49.998Z,100.00
2023-05-09T16:12:16.632Z,100.00
2023-05-09T16:14:43.259Z,100.00
2023-05-09T16:17:09.806Z,100.00
2023-05-09T16:19:36.501Z,100.00
2023-05-09T16:22:03.356Z,100.00
2023-05-09T16:24:31.656Z,100.00
2023-05-09T16:26:58.184Z,100.00
2023-05-09T16:29:24.785Z,100.00
2023-05-09T16:31:51.410Z,100.00
2023-05-09T16:34:17.839Z,100.00
2023-05-09T16:36:46.500Z,100.00
2023-05-09T16:39:13.114Z,100.00
2023-05-09T16:41:39.609Z,100.00
2023-05-09T16:44:06.119Z,100.00
2023-05-09T16:46:32.533Z,100.00
2023-05-09T16:48:58.898Z,100.00
2023-05-09T16:51:25.393Z,100.00
2023-05-09T16:53:51.974Z,100.00
2023-05-09T16:56:18.432Z,100.00
2023-05-09T16:58:44.968Z,100.00
2023-05-09T17:01:11.656Z,100.00
2023-05-09T17:03:38.245Z,100.00
2023-05-09T17:06:04.850Z,100.00
2023-05-09T17:08:31.493Z,100.00
2023-05-09T17:10:58.167Z,100.00
2023-05-09T17:13:24.806Z,100.00
2023-05-09T17:15:52.642Z,100.00
2023-05-09T17:18:33.205Z,100.00
2023-05-09T17:21:03.127Z,100.00
2023-05-09T17:23:29.523Z,100.00
2023-05-09T17:25:55.881Z,100.00
2023-05-09T17:28:22.376Z,100.00
2023-05-09T17:30:48.834Z,100.00
2023-05-09T17:33:15.564Z,100.00
2023-05-09T17:35:41.970Z,100.00
2023-05-09T17:38:08.382Z,100.00
2023-05-09T17:40:34.858Z,100.00
2023-05-09T17:43:01.231Z,100.00
2023-05-09T17:45:27.660Z,100.00
2023-05-09T17:47:54.057Z,100.00
2023-05-09T17:50:20.692Z,100.00
2023-05-09T17:52:49.382Z,100.00
2023-05-09T17:55:16.023Z,100.00
2023-05-09T17:57:43.339Z,100.00
2023-05-09T18:00:10.302Z,100.00
2023-05-09T18:02:36.977Z,100.00
2023-05-09T18:05:03.888Z,100.00
2023-05-09T18:07:32.111Z,100.00
2023-05-09T18:09:58.647Z,100.00
2023-05-09T18:12:27.559Z,100.00
2023-05-09T18:14:55.294Z,100.00
2023-05-09T18:17:21.866Z,100.00
2023-05-09T18:19:48.378Z,100.00
2023-05-09T18:22:15.675Z,100.00
2023-05-09T18:24:42.188Z,100.00
2023-05-09T18:27:08.616Z,100.00
2023-05-09T18:29:35.052Z,100.00
2023-05-09T18:32:01.968Z,100.00
2023-05-09T18:34:28.848Z,100.00
2023-05-09T18:36:55.748Z,100.00
2023-05-09T18:39:22.184Z,100.00
2023-05-09T18:41:48.720Z,100.00
2023-05-09T18:44:15.288Z,100.00
2023-05-09T18:46:41.945Z,100.00
2023-05-09T18:49:09.486Z,100.00
2023-05-09T18:51:36.469Z,100.00
2023-05-09T18:54:02.932Z,100.00
2023-05-09T18:56:29.394Z,100.00
2023-05-09T18:58:58.802Z,100.00
2023-05-09T19:01:25.639Z,100.00
2023-05-09T19:03:54.337Z,100.00
2023-05-09T19:06:21.972Z,100.00
2023-05-09T19:08:48.647Z,100.00
2023-05-09T19:11:15.055Z,100.00
2023-05-09T19:13:50.479Z,100.00
2023-05-09T19:16:19.592Z,100.00
2023-05-09T19:18:46.182Z,100.00
2023-05-09T19:21:13.665Z,100.00
2023-05-09T19:23:40.134Z,100.00
2023-05-09T19:26:06.939Z,100.00
2023-05-09T19:28:34.874Z,100.00
2023-05-09T19:31:02.020Z,100.00
2023-05-09T19:33:28.492Z,100.00
2023-05-09T19:35:54.926Z,100.00
2023-05-09T19:38:21.492Z,100.00
2023-05-09T19:40:51.122Z,100.00
2023-05-09T19:43:17.630Z,100.00
2023-05-09T19:45:44.049Z,100.00
2023-05-09T19:48:15.730Z,100.00
2023-05-09T19:50:42.879Z,100.00
2023-05-09T19:53:09.473Z,100.00
2023-05-09T19:55:36.052Z,100.00
2023-05-09T19:58:02.840Z,100.00
2023-05-09T20:00:29.302Z,100.00
2023-05-09T20:02:55.877Z,100.00
2023-05-09T20:05:22.365Z,100.00
2023-05-09T20:08:09.480Z,100.00
2023-05-09T20:10:36.216Z,100.00
2023-05-09T20:13:04.250Z,100.00
2023-05-09T20:15:31.242Z,100.00
2023-05-09T20:17:58.265Z,100.00
2023-05-09T20:20:24.906Z,100.00
2023-05-09T20:22:51.420Z,100.00
2023-05-09T20:25:17.835Z,100.00
2023-05-09T20:27:44.305Z,100.00
2023-05-09T20:30:11.483Z,100.00
2023-05-09T20:32:38.021Z,100.00
2023-05-09T20:35:04.947Z,100.00
2023-05-09T20:37:31.817Z,100.00
2023-05-09T20:39:58.363Z,100.00
2023-05-09T20:42:27.828Z,100.00
2023-05-09T20:44:55.086Z,100.00
2023-05-09T20:47:21.659Z,100.00
2023-05-09T20:49:48.160Z,100.00
2023-05-09T20:52:14.600Z,100.00
2023-05-09T20:54:41.148Z,100.00
2023-05-09T20:57:07.773Z,100.00
2023-05-09T20:59:34.296Z,100.00
2023-05-09T21:02:00.771Z,100.00
2023-05-09T21:04:27.269Z,100.00
2023-05-09T21:06:59.814Z,100.00
2023-05-09T21:09:26.345Z,100.00
2023-05-09T21:11:52.835Z,100.00
2023-05-09T21:14:19.445Z,100.00
2023-05-09T21:16:49.054Z,100.00
2023-05-09T21:19:18.388Z,100.00
2023-05-09T21:21:44.843Z,100.00
2023-05-09T21:24:11.276Z,100.00
2023-05-09T21:26:37.752Z,100.00
2023-05-09T21:29:04.354Z,100.00
2023-05-09T21:31:31.295Z,100.00
2023-05-09T21:33:59.159Z,100.00
2023-05-09T21:36:25.822Z,100.00
2023-05-09T21:38:52.485Z,100.00
2023-05-09T21:41:19.056Z,100.00
2023-05-09T21:43:45.725Z,100.00
2023-05-09T21:46:12.434Z,100.00
2023-05-09T21:48:42.433Z,100.00
2023-05-09T21:51:08.888Z,100.00
2023-05-09T21:53:35.402Z,100.00
2023-05-09T21:56:02.156Z,100.00
2023-05-09T21:58:28.532Z,100.00
2023-05-09T22:00:54.937Z,100.00
2023-05-09T22:03:21.578Z,100.00
2023-05-09T22:05:48.029Z,100.00
2023-05-09T22:08:14.477Z,100.00
2023-05-09T22:10:41.042Z,100.00
2023-05-09T22:13:08.953Z,100.00
2023-05-09T22:15:35.462Z,100.00
2023-05-09T22:18:02.049Z,100.00
2023-05-09T22:20:28.707Z,100.00
2023-05-09T22:22:55.114Z,100.00
2023-05-09T22:25:21.556Z,100.00
2023-05-09T22:27:48.062Z,100.00
2023-05-09T22:30:14.841Z,100.00
2023-05-09T22:32:41.567Z,100.00
2023-05-09T22:35:08.522Z,100.00
2023-05-09T22:37:34.926Z,100.00
2023-05-09T22:40:01.464Z,100.00
2023-05-09T22:42:29.359Z,100.00
2023-05-09T22:44:55.874Z,100.00
2023-05-09T22:47:22.355Z,100.00
2023-05-09T22:49:49.562Z,100.00
2023-05-09T22:52:16.405Z,100.00
2023-05-09T22:54:42.914Z,100.00
2023-05-09T22:57:09.786Z,100.00
2023-05-09T22:59:37.004Z,100.00
2023-05-09T23:02:03.834Z,100.00
2023-05-09T23:04:30.363Z,100.00
2023-05-09T23:06:56.787Z,100.00
2023-05-09T23:09:23.397Z,100.00
2023-05-09T23:11:49.911Z,100.00
2023-05-09T23:14:16.498Z,100.00
2023-05-09T23:16:43.067Z,100.00
2023-05-09T23:19:10.616Z,100.00
2023-05-09T23:21:37.262Z,100.00
2023-05-09T23:24:06.776Z,100.00
2023-05-09T23:26:33.353Z,100.00
2023-05-09T23:29:02.472Z,100.00
2023-05-09T23:31:28.924Z,100.00
2023-05-09T23:33:55.376Z,100.00
2023-05-09T23:36:27.397Z,100.00
2023-05-09T23:38:53.943Z,100.00
2023-05-09T23:41:21.943Z,100.00
2023-05-09T23:43:48.612Z,100.00
2023-05-09T23:46:16.064Z,100.00
2023-05-09T23:48:42.608Z,100.00
2023-05-09T23:51:09.037Z,100.00
2023-05-09T23:53:35.428Z,100.00
2023-05-09T23:56:02.839Z,100.00
2023-05-09T23:58:29.389Z,100.00
